createdAt,value
2018-05-07T00:00:41.287Z,45.46
2018-05-07T00:01:44.588Z,45.61
2018-05-07T00:02:47.902Z,45.71
2018-05-07T00:03:51.218Z,45.76
2018-05-07T00:04:54.542Z,45.84
2018-05-07T00:05:57.954Z,45.72
2018-05-07T00:07:01.181Z,45.79
2018-05-07T00:08:04.464Z,45.87
2018-05-07T00:09:07.779Z,45.94
2018-05-07T00:10:11.135Z,45.96
2018-05-07T00:11:14.447Z,45.99
2018-05-07T00:12:17.758Z,45.96
2018-05-07T00:13:21.120Z,45.99
2018-05-07T00:14:24.435Z,46.10
2018-05-07T00:15:27.758Z,46.14
2018-05-07T00:16:31.070Z,46.24
2018-05-07T00:17:34.382Z,46.31
2018-05-07T00:18:37.701Z,46.36
2018-05-07T00:19:40.994Z,46.43
2018-05-07T00:20:44.420Z,46.62
2018-05-07T00:21:47.644Z,46.70
2018-05-07T00:22:50.979Z,46.81
2018-05-07T00:23:54.289Z,46.85
2018-05-07T00:24:57.581Z,46.98
2018-05-07T00:26:00.932Z,47.07
2018-05-07T00:27:04.247Z,47.13
2018-05-07T00:28:07.589Z,47.16
2018-05-07T00:29:10.957Z,47.22
2018-05-07T00:30:14.266Z,47.29
2018-05-07T00:31:17.585Z,47.18
2018-05-07T00:32:20.909Z,47.23
2018-05-07T00:33:24.290Z,47.14
2018-05-07T00:34:27.607Z,47.07
2018-05-07T00:35:30.971Z,46.94
2018-05-07T00:36:34.283Z,46.83
2018-05-07T00:37:37.599Z,46.74
2018-05-07T00:38:40.918Z,46.64
2018-05-07T00:39:44.232Z,46.57
2018-05-07T00:40:47.537Z,46.51
2018-05-07T00:41:50.872Z,46.49
2018-05-07T00:42:54.195Z,46.71
2018-05-07T00:43:57.510Z,46.75
2018-05-07T00:45:00.823Z,46.94
2018-05-07T00:46:04.152Z,47.00
2018-05-07T00:47:07.467Z,47.14
2018-05-07T00:48:12.488Z,47.21
2018-05-07T00:49:15.794Z,47.28
2018-05-07T00:50:19.103Z,47.36
2018-05-07T00:51:22.430Z,47.43
2018-05-07T00:52:25.764Z,47.46
2018-05-07T00:53:29.071Z,47.49
2018-05-07T00:54:32.375Z,47.57
2018-05-07T00:55:35.681Z,47.59
2018-05-07T00:56:39.010Z,47.65
2018-05-07T00:57:42.339Z,47.76
2018-05-07T00:58:45.664Z,47.81
2018-05-07T00:59:48.965Z,47.75
2018-05-07T01:00:52.278Z,47.85
2018-05-07T01:01:55.605Z,47.90
2018-05-07T01:02:58.935Z,47.96
2018-05-07T01:04:02.241Z,48.02
2018-05-07T01:05:05.560Z,48.11
2018-05-07T01:06:08.854Z,48.19
2018-05-07T01:07:12.177Z,48.24
2018-05-07T01:08:15.493Z,48.29
2018-05-07T01:09:18.801Z,48.37
2018-05-07T01:10:22.101Z,48.41
2018-05-07T01:11:25.410Z,48.47
2018-05-07T01:12:28.719Z,48.50
2018-05-07T01:13:32.078Z,48.59
2018-05-07T01:14:35.377Z,48.61
2018-05-07T01:15:38.982Z,48.66
2018-05-07T01:16:42.290Z,48.63
2018-05-07T01:17:45.597Z,48.66
2018-05-07T01:18:48.922Z,48.72
2018-05-07T01:19:52.243Z,48.76
2018-05-07T01:20:55.549Z,48.72
2018-05-07T01:21:58.858Z,48.71
2018-05-07T01:23:02.175Z,48.70
2018-05-07T01:24:05.494Z,48.85
2018-05-07T01:25:08.819Z,48.99
2018-05-07T01:26:12.133Z,49.08
2018-05-07T01:27:15.448Z,49.21
2018-05-07T01:28:18.788Z,49.32
2018-05-07T01:29:22.113Z,49.40
2018-05-07T01:30:25.412Z,49.49
2018-05-07T01:31:28.755Z,49.56
2018-05-07T01:32:32.055Z,49.66
2018-05-07T01:33:35.365Z,49.74
2018-05-07T01:34:38.690Z,49.83
2018-05-07T01:35:41.987Z,49.92
2018-05-07T01:36:45.291Z,50.02
2018-05-07T01:37:48.613Z,50.09
2018-05-07T01:38:51.915Z,50.12
2018-05-07T01:39:55.240Z,50.21
2018-05-07T01:40:58.549Z,50.26
2018-05-07T01:42:01.850Z,50.32
2018-05-07T01:43:05.158Z,50.41
2018-05-07T01:44:08.470Z,50.51
2018-05-07T01:45:11.797Z,50.62
2018-05-07T01:46:15.116Z,50.69
2018-05-07T01:47:18.424Z,50.78
2018-05-07T01:48:23.284Z,50.87
2018-05-07T01:49:26.605Z,50.94
2018-05-07T01:50:29.933Z,51.01
2018-05-07T01:51:33.245Z,51.09
2018-05-07T01:52:36.594Z,51.13
2018-05-07T01:53:39.933Z,51.20
2018-05-07T01:54:43.223Z,51.29
2018-05-07T01:55:46.548Z,51.28
2018-05-07T01:56:49.860Z,51.37
2018-05-07T01:57:53.171Z,51.49
2018-05-07T01:58:56.478Z,51.59
2018-05-07T01:59:59.784Z,51.69
2018-05-07T02:01:03.134Z,51.76
2018-05-07T02:02:06.435Z,51.81
2018-05-07T02:03:09.743Z,51.83
2018-05-07T02:04:13.038Z,51.89
2018-05-07T02:05:16.366Z,51.93
2018-05-07T02:06:19.692Z,51.98
2018-05-07T02:07:22.995Z,52.02
2018-05-07T02:08:26.315Z,52.00
2018-05-07T02:09:29.628Z,52.09
2018-05-07T02:10:32.940Z,52.09
2018-05-07T02:11:36.272Z,52.11
2018-05-07T02:12:39.602Z,52.19
2018-05-07T02:13:42.912Z,52.25
2018-05-07T02:14:46.224Z,52.30
2018-05-07T02:15:49.548Z,52.34
2018-05-07T02:16:52.897Z,52.37
2018-05-07T02:17:56.194Z,52.44
2018-05-07T02:18:59.515Z,52.49
2018-05-07T02:20:02.843Z,52.54
2018-05-07T02:21:06.146Z,52.57
2018-05-07T02:22:09.477Z,52.57
2018-05-07T02:23:12.799Z,52.60
2018-05-07T02:24:16.111Z,52.60
2018-05-07T02:25:19.427Z,52.62
2018-05-07T02:26:22.727Z,52.61
2018-05-07T02:27:26.063Z,52.54
2018-05-07T02:28:29.378Z,52.54
2018-05-07T02:29:32.706Z,52.59
2018-05-07T02:30:36.008Z,52.74
2018-05-07T02:31:39.353Z,52.87
2018-05-07T02:32:42.692Z,53.02
2018-05-07T02:33:46.010Z,53.20
2018-05-07T02:34:49.309Z,53.38
2018-05-07T02:35:52.667Z,53.52
2018-05-07T02:36:55.992Z,53.64
2018-05-07T02:37:59.355Z,53.80
2018-05-07T02:39:02.803Z,53.95
2018-05-07T02:40:06.094Z,54.03
2018-05-07T02:41:09.402Z,54.13
2018-05-07T02:42:12.732Z,54.20
2018-05-07T02:43:16.050Z,54.29
2018-05-07T02:44:19.461Z,54.36
2018-05-07T02:45:22.752Z,54.41
2018-05-07T02:46:26.079Z,54.47
2018-05-07T02:47:29.391Z,54.56
2018-05-07T02:48:32.891Z,54.64
2018-05-07T02:49:36.240Z,54.71
2018-05-07T02:50:39.584Z,54.75
2018-05-07T02:51:42.905Z,54.79
2018-05-07T02:52:46.222Z,54.85
2018-05-07T02:53:49.575Z,54.91
2018-05-07T02:54:52.883Z,54.96
2018-05-07T02:55:56.201Z,55.03
2018-05-07T02:56:59.514Z,55.08
2018-05-07T02:58:02.838Z,55.10
2018-05-07T02:59:06.171Z,55.13
2018-05-07T03:00:09.480Z,55.18
2018-05-07T03:01:12.780Z,55.19
2018-05-07T03:02:16.077Z,55.22
2018-05-07T03:03:19.380Z,55.23
2018-05-07T03:04:22.719Z,55.21
2018-05-07T03:05:26.014Z,55.25
2018-05-07T03:06:29.325Z,55.21
2018-05-07T03:07:32.878Z,55.22
2018-05-07T03:08:36.207Z,55.25
2018-05-07T03:09:39.539Z,55.29
2018-05-07T03:10:42.842Z,55.28
2018-05-07T03:11:46.163Z,55.30
2018-05-07T03:12:49.484Z,55.31
2018-05-07T03:13:52.784Z,55.31
2018-05-07T03:14:56.125Z,55.33
2018-05-07T03:15:59.422Z,55.35
2018-05-07T03:17:02.728Z,55.37
2018-05-07T03:18:06.030Z,55.41
2018-05-07T03:19:09.338Z,55.44
2018-05-07T03:20:12.651Z,55.49
2018-05-07T03:21:15.958Z,55.56
2018-05-07T03:22:19.271Z,55.61
2018-05-07T03:23:22.593Z,55.65
2018-05-07T03:24:25.901Z,55.70
2018-05-07T03:25:29.228Z,55.77
2018-05-07T03:26:32.527Z,55.85
2018-05-07T03:27:35.824Z,55.92
2018-05-07T03:28:39.145Z,55.93
2018-05-07T03:29:42.445Z,55.95
2018-05-07T03:30:45.779Z,56.01
2018-05-07T03:31:49.101Z,56.08
2018-05-07T03:32:52.416Z,56.13
2018-05-07T03:33:55.732Z,56.16
2018-05-07T03:34:59.054Z,56.22
2018-05-07T03:36:02.388Z,56.28
2018-05-07T03:37:05.685Z,56.34
2018-05-07T03:38:09.010Z,56.37
2018-05-07T03:39:12.322Z,56.41
2018-05-07T03:40:15.631Z,56.43
2018-05-07T03:41:18.960Z,56.50
2018-05-07T03:42:22.268Z,56.51
2018-05-07T03:43:25.580Z,56.51
2018-05-07T03:44:28.954Z,56.51
2018-05-07T03:45:32.253Z,56.54
2018-05-07T03:46:35.579Z,56.57
2018-05-07T03:47:38.886Z,56.55
2018-05-07T03:48:42.491Z,56.58
2018-05-07T03:49:45.771Z,56.60
2018-05-07T03:50:49.065Z,56.59
2018-05-07T03:51:52.409Z,56.61
2018-05-07T03:52:55.723Z,56.63
2018-05-07T03:53:59.022Z,56.64
2018-05-07T03:55:02.332Z,56.65
2018-05-07T03:56:05.635Z,56.69
2018-05-07T03:57:09.034Z,56.73
2018-05-07T03:58:12.372Z,56.74
2018-05-07T03:59:15.675Z,56.77
2018-05-07T04:00:19.064Z,56.79
2018-05-07T04:01:22.385Z,56.82
2018-05-07T04:02:25.719Z,56.83
2018-05-07T04:03:29.043Z,56.89
2018-05-07T04:04:32.353Z,56.94
2018-05-07T04:05:35.708Z,56.97
2018-05-07T04:06:39.027Z,57.00
2018-05-07T04:07:42.363Z,57.02
2018-05-07T04:08:45.672Z,57.04
2018-05-07T04:09:48.981Z,57.08
2018-05-07T04:10:52.279Z,57.10
2018-05-07T04:11:55.582Z,57.13
2018-05-07T04:12:58.904Z,57.16
2018-05-07T04:14:02.234Z,57.20
2018-05-07T04:15:05.539Z,57.23
2018-05-07T04:16:08.824Z,57.26
2018-05-07T04:17:23.856Z,57.28
2018-05-07T04:18:39.042Z,57.38
2018-05-07T04:19:54.147Z,57.43
2018-05-07T04:21:09.251Z,57.46
2018-05-07T04:22:24.439Z,57.51
2018-05-07T04:23:39.385Z,57.52
2018-05-07T04:24:42.732Z,57.55
2018-05-07T04:25:46.051Z,57.54
2018-05-07T04:26:49.380Z,57.53
2018-05-07T04:27:52.726Z,57.52
2018-05-07T04:28:56.083Z,57.52
2018-05-07T04:29:59.391Z,57.55
2018-05-07T04:31:02.709Z,57.51
2018-05-07T04:32:06.035Z,57.50
2018-05-07T04:33:09.334Z,57.49
2018-05-07T04:34:12.871Z,57.48
2018-05-07T04:35:16.232Z,57.49
2018-05-07T04:36:19.524Z,57.51
2018-05-07T04:37:22.827Z,57.54
2018-05-07T04:38:26.271Z,57.57
2018-05-07T04:39:29.601Z,57.60
2018-05-07T04:40:32.916Z,57.64
2018-05-07T04:41:36.219Z,57.67
2018-05-07T04:42:39.518Z,57.71
2018-05-07T04:43:42.815Z,57.74
2018-05-07T04:44:46.155Z,57.76
2018-05-07T04:45:49.456Z,57.77
2018-05-07T04:46:52.783Z,57.78
2018-05-07T04:47:56.119Z,57.80
2018-05-07T04:48:59.667Z,57.80
2018-05-07T04:50:03.154Z,57.78
2018-05-07T04:51:06.462Z,57.76
2018-05-07T04:52:09.851Z,57.75
2018-05-07T04:53:13.172Z,57.75
2018-05-07T04:54:16.496Z,57.72
2018-05-07T04:55:20.073Z,57.72
2018-05-07T04:56:23.391Z,57.67
2018-05-07T04:57:26.695Z,57.65
2018-05-07T04:58:30.073Z,57.61
2018-05-07T04:59:33.392Z,57.57
2018-05-07T05:00:36.784Z,57.57
2018-05-07T05:01:40.103Z,57.61
2018-05-07T05:02:43.418Z,57.65
2018-05-07T05:03:46.724Z,57.57
2018-05-07T05:04:50.027Z,57.56
2018-05-07T05:05:53.366Z,57.52
2018-05-07T05:06:56.724Z,57.54
2018-05-07T05:08:00.076Z,57.56
2018-05-07T05:09:03.553Z,57.54
2018-05-07T05:10:06.853Z,57.53
2018-05-07T05:11:10.185Z,57.52
2018-05-07T05:12:13.524Z,57.55
2018-05-07T05:13:16.842Z,57.56
2018-05-07T05:14:20.223Z,57.55
2018-05-07T05:15:24.282Z,57.57
2018-05-07T05:16:27.610Z,57.58
2018-05-07T05:17:30.939Z,57.56
2018-05-07T05:18:34.257Z,57.57
2018-05-07T05:19:37.631Z,57.59
2018-05-07T05:20:40.940Z,57.61
2018-05-07T05:21:44.268Z,57.60
2018-05-07T05:22:47.576Z,57.59
2018-05-07T05:23:50.883Z,57.54
2018-05-07T05:24:54.232Z,57.50
2018-05-07T05:25:57.537Z,57.44
2018-05-07T05:27:00.863Z,57.28
2018-05-07T05:28:04.163Z,56.94
2018-05-07T05:29:07.566Z,56.41
2018-05-07T05:30:10.830Z,55.71
2018-05-07T05:31:14.131Z,54.93
2018-05-07T05:32:17.512Z,54.14
2018-05-07T05:33:20.819Z,53.27
2018-05-07T05:34:24.144Z,52.49
2018-05-07T05:35:27.471Z,51.67
2018-05-07T05:36:30.788Z,50.79
2018-05-07T05:37:34.243Z,50.06
2018-05-07T05:38:37.531Z,49.23
2018-05-07T05:39:41.295Z,48.50
2018-05-07T05:40:44.595Z,47.68
2018-05-07T05:41:47.921Z,46.92
2018-05-07T05:42:51.340Z,46.25
2018-05-07T05:43:54.657Z,45.67
2018-05-07T05:44:57.983Z,45.20
2018-05-07T05:46:01.304Z,44.63
2018-05-07T05:47:04.629Z,44.13
2018-05-07T05:48:07.946Z,43.51
2018-05-07T05:49:12.228Z,43.00
2018-05-07T05:50:15.602Z,42.40
2018-05-07T05:51:18.876Z,41.79
2018-05-07T05:52:22.182Z,41.28
2018-05-07T05:53:25.558Z,40.80
2018-05-07T05:54:28.877Z,40.38
2018-05-07T05:55:32.385Z,39.97
2018-05-07T05:56:35.740Z,39.67
2018-05-07T05:57:39.069Z,39.32
2018-05-07T05:58:42.447Z,39.04
2018-05-07T05:59:45.767Z,38.53
2018-05-07T06:00:49.150Z,38.07
2018-05-07T06:01:52.477Z,37.68
2018-05-07T06:02:55.776Z,37.38
2018-05-07T06:03:59.215Z,36.90
2018-05-07T06:05:02.448Z,36.24
2018-05-07T06:06:05.783Z,35.17
2018-05-07T06:07:09.128Z,34.41
2018-05-07T06:08:12.420Z,33.83
2018-05-07T06:09:15.754Z,33.31
2018-05-07T06:10:19.413Z,32.76
2018-05-07T06:11:22.776Z,32.32
2018-05-07T06:12:26.103Z,31.85
2018-05-07T06:13:29.410Z,31.46
2018-05-07T06:14:32.919Z,31.14
2018-05-07T06:15:36.425Z,30.88
2018-05-07T06:16:39.747Z,30.59
2018-05-07T06:17:43.422Z,30.36
2018-05-07T06:18:46.745Z,30.10
2018-05-07T06:19:50.081Z,29.87
2018-05-07T06:20:53.406Z,29.61
2018-05-07T06:21:56.700Z,29.39
2018-05-07T06:23:00.065Z,29.23
2018-05-07T06:24:03.371Z,29.06
2018-05-07T06:25:06.708Z,28.82
2018-05-07T06:26:10.127Z,28.67
2018-05-07T06:27:13.435Z,28.59
2018-05-07T06:28:16.762Z,28.44
2018-05-07T06:29:20.078Z,28.26
2018-05-07T06:30:23.431Z,28.14
2018-05-07T06:31:26.866Z,28.00
2018-05-07T06:32:30.236Z,27.85
2018-05-07T06:33:33.608Z,27.67
2018-05-07T06:34:36.946Z,27.48
2018-05-07T06:35:40.298Z,27.33
2018-05-07T06:37:53.440Z,27.11
2018-05-07T06:38:56.750Z,26.96
2018-05-07T06:40:00.072Z,26.77
2018-05-07T06:41:03.398Z,26.66
2018-05-07T06:42:06.710Z,26.58
2018-05-07T06:43:10.040Z,26.45
2018-05-07T06:44:13.347Z,26.32
2018-05-07T06:45:16.658Z,26.16
2018-05-07T06:46:20.171Z,26.03
2018-05-07T06:47:23.568Z,25.89
2018-05-07T06:48:26.872Z,25.77
2018-05-07T06:49:30.461Z,25.66
2018-05-07T06:50:33.780Z,25.54
2018-05-07T06:51:37.128Z,25.45
2018-05-07T06:52:40.449Z,25.32
2018-05-07T06:53:43.823Z,25.25
2018-05-07T06:54:47.179Z,25.19
2018-05-07T06:55:50.491Z,25.09
2018-05-07T06:56:53.843Z,25.00
2018-05-07T06:57:57.139Z,24.92
2018-05-07T06:59:00.448Z,24.89
2018-05-07T07:00:03.762Z,24.93
2018-05-07T07:01:07.121Z,25.06
2018-05-07T07:02:10.580Z,25.26
2018-05-07T07:03:13.806Z,25.43
2018-05-07T07:04:17.116Z,25.74
2018-05-07T07:05:20.423Z,26.17
2018-05-07T07:06:23.744Z,26.62
2018-05-07T07:07:27.188Z,27.08
2018-05-07T07:08:30.640Z,27.42
2018-05-07T07:09:33.781Z,27.85
2018-05-07T07:10:37.084Z,28.31
2018-05-07T07:11:40.414Z,28.68
2018-05-07T07:12:43.717Z,29.08
2018-05-07T07:13:47.048Z,29.42
2018-05-07T07:14:50.342Z,29.69
2018-05-07T07:15:53.653Z,30.02
2018-05-07T07:16:57.007Z,30.33
2018-05-07T07:18:00.325Z,30.59
2018-05-07T07:19:03.763Z,30.78
2018-05-07T07:20:07.059Z,31.01
2018-05-07T07:21:10.361Z,31.15
2018-05-07T07:22:13.683Z,31.19
2018-05-07T07:23:17.056Z,31.31
2018-05-07T07:24:20.362Z,31.47
2018-05-07T07:25:23.690Z,31.74
2018-05-07T07:26:27.004Z,31.95
2018-05-07T07:27:30.328Z,32.13
2018-05-07T07:28:33.670Z,32.26
2018-05-07T07:29:36.959Z,32.44
2018-05-07T07:30:40.260Z,32.59
2018-05-07T07:31:43.587Z,32.75
2018-05-07T07:32:46.899Z,32.94
2018-05-07T07:33:50.429Z,33.14
2018-05-07T07:34:53.603Z,33.26
2018-05-07T07:35:56.931Z,33.36
2018-05-07T07:37:00.240Z,33.44
2018-05-07T07:38:03.567Z,33.50
2018-05-07T07:39:06.956Z,33.50
2018-05-07T07:40:10.267Z,33.52
2018-05-07T07:41:13.688Z,33.47
2018-05-07T07:42:16.986Z,33.40
2018-05-07T07:43:20.346Z,33.37
2018-05-07T07:44:23.672Z,33.44
2018-05-07T07:45:26.979Z,33.54
2018-05-07T07:46:30.279Z,33.70
2018-05-07T07:47:33.608Z,33.73
2018-05-07T07:48:36.985Z,33.86
2018-05-07T07:49:40.498Z,33.98
2018-05-07T07:50:43.898Z,34.05
2018-05-07T07:51:47.263Z,34.17
2018-05-07T07:52:50.595Z,34.39
2018-05-07T07:53:53.948Z,34.55
2018-05-07T07:54:57.234Z,34.73
2018-05-07T07:56:00.627Z,34.92
2018-05-07T07:57:03.935Z,35.01
2018-05-07T07:58:07.272Z,35.04
2018-05-07T07:59:10.583Z,35.10
2018-05-07T08:00:13.932Z,35.27
2018-05-07T08:01:17.270Z,35.43
2018-05-07T08:02:20.671Z,35.57
2018-05-07T08:03:23.946Z,35.63
2018-05-07T08:04:27.250Z,35.54
2018-05-07T08:05:30.606Z,35.55
2018-05-07T08:06:33.924Z,35.59
2018-05-07T08:07:37.245Z,35.68
2018-05-07T08:08:40.559Z,35.83
2018-05-07T08:09:43.885Z,35.96
2018-05-07T08:10:47.221Z,36.09
2018-05-07T08:11:50.522Z,36.22
2018-05-07T08:12:53.910Z,36.37
2018-05-07T08:13:57.223Z,36.41
2018-05-07T08:15:00.531Z,36.44
2018-05-07T08:16:03.925Z,36.45
2018-05-07T08:17:07.248Z,36.50
2018-05-07T08:18:10.581Z,36.45
2018-05-07T08:19:13.877Z,36.45
2018-05-07T08:20:17.200Z,36.50
2018-05-07T08:21:20.577Z,36.54
2018-05-07T08:22:23.944Z,36.62
2018-05-07T08:23:27.259Z,36.77
2018-05-07T08:24:30.553Z,36.85
2018-05-07T08:25:33.850Z,36.90
2018-05-07T08:26:37.205Z,36.93
2018-05-07T08:27:40.548Z,37.00
2018-05-07T08:28:43.885Z,37.04
2018-05-07T08:29:47.460Z,37.11
2018-05-07T08:30:50.788Z,37.19
2018-05-07T08:31:54.219Z,37.17
2018-05-07T08:32:57.568Z,37.18
2018-05-07T08:34:00.991Z,37.22
2018-05-07T08:35:04.350Z,37.19
2018-05-07T08:36:07.739Z,37.26
2018-05-07T08:37:11.138Z,37.18
2018-05-07T08:38:14.468Z,37.25
2018-05-07T08:39:17.811Z,37.29
2018-05-07T08:40:21.223Z,37.28
2018-05-07T08:41:24.667Z,37.30
2018-05-07T08:42:28.063Z,37.24
2018-05-07T08:43:31.502Z,37.16
2018-05-07T08:44:34.858Z,37.17
2018-05-07T08:45:38.167Z,37.17
2018-05-07T08:46:41.512Z,37.20
2018-05-07T08:47:44.848Z,37.28
2018-05-07T08:48:48.186Z,37.40
2018-05-07T08:49:51.760Z,37.47
2018-05-07T08:50:55.099Z,37.57
2018-05-07T08:51:58.414Z,37.62
2018-05-07T08:53:01.990Z,37.53
2018-05-07T08:54:05.242Z,37.47
2018-05-07T08:55:08.573Z,37.36
2018-05-07T08:56:11.884Z,37.31
2018-05-07T08:57:15.223Z,37.21
2018-05-07T08:58:18.572Z,37.14
2018-05-07T08:59:21.911Z,37.09
2018-05-07T09:00:25.251Z,37.05
2018-05-07T09:01:28.566Z,37.11
2018-05-07T09:02:31.884Z,37.15
2018-05-07T09:03:35.224Z,37.25
2018-05-07T09:04:38.548Z,37.33
2018-05-07T09:05:41.916Z,37.29
2018-05-07T09:06:45.222Z,37.27
2018-05-07T09:07:48.567Z,37.24
2018-05-07T09:08:53.716Z,37.23
2018-05-07T09:09:57.054Z,37.26
2018-05-07T09:11:00.365Z,37.17
2018-05-07T09:12:03.704Z,37.17
2018-05-07T09:13:07.032Z,37.11
2018-05-07T09:14:10.483Z,37.11
2018-05-07T09:15:13.811Z,37.12
2018-05-07T09:16:17.140Z,37.14
2018-05-07T09:17:20.484Z,37.05
2018-05-07T09:18:23.811Z,37.05
2018-05-07T09:19:27.178Z,37.00
2018-05-07T09:20:30.484Z,36.89
2018-05-07T09:21:34.903Z,36.87
2018-05-07T09:22:38.245Z,36.88
2018-05-07T09:23:41.547Z,36.91
2018-05-07T09:24:44.870Z,36.92
2018-05-07T09:25:48.181Z,36.96
2018-05-07T09:26:51.496Z,36.89
2018-05-07T09:27:54.808Z,36.78
2018-05-07T09:28:58.137Z,36.78
2018-05-07T09:30:01.451Z,36.77
2018-05-07T09:31:04.760Z,36.65
2018-05-07T09:32:08.424Z,36.59
2018-05-07T09:33:11.881Z,36.52
2018-05-07T09:34:15.188Z,36.52
2018-05-07T09:35:18.530Z,36.47
2018-05-07T09:36:21.833Z,36.41
2018-05-07T09:37:26.737Z,36.45
2018-05-07T09:38:30.084Z,36.53
2018-05-07T09:39:33.374Z,36.70
2018-05-07T09:40:36.889Z,36.84
2018-05-07T09:41:40.207Z,36.96
2018-05-07T09:42:43.526Z,37.07
2018-05-07T09:43:46.887Z,37.04
2018-05-07T09:44:50.199Z,37.01
2018-05-07T09:45:53.588Z,37.12
2018-05-07T09:46:56.876Z,37.09
2018-05-07T09:48:00.247Z,37.07
2018-05-07T09:49:03.629Z,36.97
2018-05-07T09:50:07.097Z,36.83
2018-05-07T09:51:10.409Z,36.77
2018-05-07T09:52:13.749Z,36.69
2018-05-07T09:53:17.063Z,36.60
2018-05-07T09:54:20.589Z,36.58
2018-05-07T09:55:23.869Z,36.52
2018-05-07T09:56:27.303Z,36.51
2018-05-07T09:57:30.627Z,36.47
2018-05-07T09:58:33.965Z,36.38
2018-05-07T09:59:37.260Z,36.29
2018-05-07T10:00:40.550Z,36.35
2018-05-07T10:01:43.886Z,36.35
2018-05-07T10:02:47.198Z,36.39
2018-05-07T10:03:50.500Z,36.47
2018-05-07T10:04:53.836Z,36.61
2018-05-07T10:05:57.147Z,36.80
2018-05-07T10:07:00.490Z,36.89
2018-05-07T10:08:03.802Z,36.95
2018-05-07T10:09:07.131Z,37.04
2018-05-07T10:10:10.423Z,36.99
2018-05-07T10:11:13.739Z,36.93
2018-05-07T10:12:17.125Z,36.83
2018-05-07T10:13:20.439Z,36.89
2018-05-07T10:14:23.795Z,36.75
2018-05-07T10:15:27.092Z,36.58
2018-05-07T10:16:30.414Z,36.47
2018-05-07T10:17:33.742Z,36.48
2018-05-07T10:18:37.472Z,36.54
2018-05-07T10:19:40.795Z,36.63
2018-05-07T10:20:44.108Z,36.71
2018-05-07T10:21:47.430Z,36.78
2018-05-07T10:22:51.035Z,36.66
2018-05-07T10:23:54.338Z,36.60
2018-05-07T10:24:57.662Z,36.57
2018-05-07T10:26:00.995Z,36.63
2018-05-07T10:27:04.321Z,36.56
2018-05-07T10:28:07.658Z,36.49
2018-05-07T10:29:11.185Z,36.42
2018-05-07T10:30:14.488Z,36.40
2018-05-07T10:31:17.906Z,36.38
2018-05-07T10:32:21.251Z,36.49
2018-05-07T10:33:24.573Z,36.67
2018-05-07T10:34:27.903Z,36.71
2018-05-07T10:35:31.235Z,36.57
2018-05-07T10:36:34.551Z,36.53
2018-05-07T10:37:38.059Z,36.58
2018-05-07T10:38:41.404Z,36.67
2018-05-07T10:39:44.731Z,36.71
2018-05-07T10:40:48.043Z,36.82
2018-05-07T10:41:51.380Z,36.70
2018-05-07T10:42:54.683Z,36.58
2018-05-07T10:43:58.064Z,36.58
2018-05-07T10:45:01.400Z,36.60
2018-05-07T10:46:04.703Z,36.59
2018-05-07T10:47:08.045Z,36.49
2018-05-07T10:48:11.363Z,36.47
2018-05-07T10:49:14.907Z,36.16
2018-05-07T10:50:18.347Z,35.70
2018-05-07T10:51:21.733Z,35.39
2018-05-07T10:52:25.104Z,35.23
2018-05-07T10:53:28.408Z,35.35
2018-05-07T10:54:31.799Z,35.49
2018-05-07T10:55:35.171Z,35.72
2018-05-07T10:56:38.490Z,35.91
2018-05-07T10:57:41.815Z,35.98
2018-05-07T10:58:45.214Z,36.05
2018-05-07T10:59:48.549Z,36.07
2018-05-07T11:00:51.860Z,36.15
2018-05-07T11:01:55.188Z,36.16
2018-05-07T11:02:58.499Z,35.95
2018-05-07T11:04:01.808Z,35.85
2018-05-07T11:05:05.141Z,35.49
2018-05-07T11:06:08.448Z,35.25
2018-05-07T11:07:11.763Z,35.16
2018-05-07T11:08:15.085Z,35.13
2018-05-07T11:09:18.396Z,35.00
2018-05-07T11:10:21.846Z,34.76
2018-05-07T11:11:25.137Z,34.64
2018-05-07T11:12:28.511Z,34.49
2018-05-07T11:13:31.910Z,34.14
2018-05-07T11:14:35.228Z,33.72
2018-05-07T11:15:38.673Z,33.40
2018-05-07T11:16:41.998Z,33.14
2018-05-07T11:17:45.311Z,32.92
2018-05-07T11:18:48.656Z,32.83
2018-05-07T11:19:52.022Z,32.66
2018-05-07T11:20:55.312Z,32.64
2018-05-07T11:21:58.615Z,32.60
2018-05-07T11:23:01.927Z,32.54
2018-05-07T11:24:05.237Z,32.53
2018-05-07T11:25:08.535Z,32.52
2018-05-07T11:26:11.862Z,32.54
2018-05-07T11:27:15.176Z,32.52
2018-05-07T11:28:18.491Z,32.44
2018-05-07T11:29:21.793Z,32.45
2018-05-07T11:30:25.106Z,32.34
2018-05-07T11:31:28.459Z,32.44
2018-05-07T11:32:31.779Z,32.44
2018-05-07T11:33:35.119Z,32.42
2018-05-07T11:34:38.670Z,32.38
2018-05-07T11:35:42.121Z,32.28
2018-05-07T11:36:45.484Z,32.35
2018-05-07T11:37:48.776Z,32.39
2018-05-07T11:38:52.141Z,32.43
2018-05-07T11:39:55.431Z,32.36
2018-05-07T11:40:58.738Z,32.35
2018-05-07T11:42:02.075Z,32.32
2018-05-07T11:43:05.435Z,32.30
2018-05-07T11:44:08.732Z,32.21
2018-05-07T11:45:12.061Z,32.16
2018-05-07T11:46:15.371Z,32.19
2018-05-07T11:47:18.798Z,32.20
2018-05-07T11:48:22.035Z,32.23
2018-05-07T11:49:25.334Z,32.03
2018-05-07T11:50:29.611Z,31.73
2018-05-07T11:51:32.986Z,31.30
2018-05-07T11:52:36.324Z,31.11
2018-05-07T11:53:39.643Z,30.86
2018-05-07T11:54:42.965Z,30.40
2018-05-07T11:55:46.296Z,30.10
2018-05-07T11:56:49.610Z,29.97
2018-05-07T11:57:52.937Z,29.91
2018-05-07T11:58:56.256Z,29.96
2018-05-07T11:59:59.575Z,30.06
2018-05-07T12:01:02.891Z,30.25
2018-05-07T12:02:06.178Z,30.36
2018-05-07T12:03:09.522Z,30.53
2018-05-07T12:04:12.883Z,30.55
2018-05-07T12:05:16.187Z,30.60
2018-05-07T12:06:19.507Z,30.43
2018-05-07T12:07:22.859Z,30.37
2018-05-07T12:08:27.104Z,30.16
2018-05-07T12:09:30.452Z,30.06
2018-05-07T12:10:33.806Z,30.03
2018-05-07T12:11:37.139Z,30.05
2018-05-07T12:12:40.476Z,30.15
2018-05-07T12:13:43.827Z,30.23
2018-05-07T12:14:47.152Z,30.10
2018-05-07T12:15:50.511Z,30.03
2018-05-07T12:16:53.779Z,30.05
2018-05-07T12:17:57.083Z,30.07
2018-05-07T12:19:00.427Z,30.12
2018-05-07T12:20:03.737Z,29.91
2018-05-07T12:21:07.072Z,29.86
2018-05-07T12:22:10.380Z,30.00
2018-05-07T12:23:13.812Z,30.15
2018-05-07T12:24:17.243Z,30.27
2018-05-07T12:25:20.845Z,30.10
2018-05-07T12:26:24.173Z,29.92
2018-05-07T12:27:27.493Z,29.83
2018-05-07T12:28:30.801Z,29.91
2018-05-07T12:29:34.208Z,30.09
2018-05-07T12:30:37.511Z,30.23
2018-05-07T12:31:40.877Z,30.36
2018-05-07T12:32:44.236Z,30.24
2018-05-07T12:33:47.570Z,30.06
2018-05-07T12:34:51.063Z,30.07
2018-05-07T12:35:54.397Z,30.03
2018-05-07T12:36:57.756Z,30.03
2018-05-07T12:38:01.111Z,30.16
2018-05-07T12:39:04.460Z,30.30
2018-05-07T12:40:07.959Z,30.27
2018-05-07T12:41:11.307Z,30.22
2018-05-07T12:42:14.684Z,30.23
2018-05-07T12:43:17.971Z,30.30
2018-05-07T12:44:21.294Z,30.32
2018-05-07T12:45:24.660Z,30.34
2018-05-07T12:46:28.059Z,30.32
2018-05-07T12:47:31.381Z,29.97
2018-05-07T12:48:34.710Z,29.85
2018-05-07T12:49:38.062Z,29.71
2018-05-07T12:50:42.375Z,29.69
2018-05-07T12:51:45.693Z,29.96
2018-05-07T12:52:48.990Z,30.20
2018-05-07T12:53:52.296Z,30.43
2018-05-07T12:54:55.602Z,30.63
2018-05-07T12:55:58.956Z,30.83
2018-05-07T12:57:02.249Z,30.44
2018-05-07T12:58:05.562Z,30.14
2018-05-07T12:59:08.891Z,29.80
2018-05-07T13:00:12.205Z,29.73
2018-05-07T13:01:15.555Z,29.51
2018-05-07T13:02:18.865Z,29.27
2018-05-07T13:03:22.180Z,29.24
2018-05-07T13:04:25.479Z,29.08
2018-05-07T13:05:28.817Z,28.96
2018-05-07T13:06:32.204Z,28.91
2018-05-07T13:07:35.524Z,28.98
2018-05-07T13:08:38.861Z,29.24
2018-05-07T13:10:51.817Z,29.49
2018-05-07T13:11:55.147Z,29.25
2018-05-07T13:12:58.471Z,29.10
2018-05-07T13:14:01.883Z,29.00
2018-05-07T13:15:05.258Z,28.95
2018-05-07T13:16:08.662Z,28.92
2018-05-07T13:17:12.100Z,28.94
2018-05-07T13:18:15.372Z,28.96
2018-05-07T13:19:18.730Z,29.01
2018-05-07T13:20:22.104Z,29.02
2018-05-07T13:21:28.838Z,29.32
2018-05-07T13:22:34.139Z,29.73
2018-05-07T13:23:41.363Z,30.06
2018-05-07T13:24:47.070Z,30.29
2018-05-07T13:25:53.955Z,30.62
2018-05-07T13:26:57.280Z,30.71
2018-05-07T13:28:00.637Z,30.57
2018-05-07T13:29:03.964Z,30.49
2018-05-07T13:30:07.299Z,30.52
2018-05-07T13:31:10.604Z,30.58
2018-05-07T13:32:13.923Z,30.65
2018-05-07T13:33:17.311Z,30.63
2018-05-07T13:34:20.762Z,30.55
2018-05-07T13:35:24.239Z,30.41
2018-05-07T13:36:27.690Z,30.36
2018-05-07T13:37:31.023Z,30.32
2018-05-07T13:38:39.187Z,30.38
2018-05-07T13:39:46.045Z,30.29